createdAt,value
2023-04-20T00:01:12.677Z,20.36
2023-04-20T00:03:39.839Z,20.38
2023-04-20T00:06:08.079Z,20.39
2023-04-20T00:08:35.436Z,20.40
2023-04-20T00:11:02.364Z,20.41
2023-04-20T00:13:29.262Z,20.41
2023-04-20T00:15:56.303Z,20.41
2023-04-20T00:18:23.172Z,20.42
2023-04-20T00:20:50.102Z,20.42
2023-04-20T00:23:17.093Z,20.42
2023-04-20T00:25:44.425Z,20.43
2023-04-20T00:28:11.238Z,20.41
2023-04-20T00:30:38.204Z,20.41
2023-04-20T00:33:05.171Z,20.40
2023-04-20T00:35:32.222Z,20.40
2023-04-20T00:37:59.194Z,20.39
2023-04-20T00:40:26.185Z,20.38
2023-04-20T00:42:53.155Z,20.37
2023-04-20T00:45:22.328Z,20.37
2023-04-20T00:47:49.426Z,20.36
2023-04-20T00:50:16.416Z,20.36
2023-04-20T00:52:43.593Z,20.35
2023-04-20T00:55:11.392Z,20.34
2023-04-20T00:57:38.783Z,20.34
2023-04-20T01:00:08.529Z,20.33
2023-04-20T01:02:35.699Z,20.33
2023-04-20T01:05:04.205Z,20.33
2023-04-20T01:07:31.257Z,20.32
2023-04-20T01:09:58.246Z,20.32
2023-04-20T01:12:25.803Z,20.32
2023-04-20T01:14:52.722Z,20.34
2023-04-20T01:17:21.041Z,20.35
2023-04-20T01:19:49.228Z,20.36
2023-04-20T01:22:21.359Z,20.37
2023-04-20T01:24:48.358Z,20.39
2023-04-20T01:27:17.223Z,20.40
2023-04-20T01:29:44.945Z,20.40
2023-04-20T01:32:12.550Z,20.39
2023-04-20T01:34:39.627Z,20.39
2023-04-20T01:37:08.432Z,20.40
2023-04-20T01:39:37.229Z,20.40
2023-04-20T01:42:05.045Z,20.39
2023-04-20T01:44:32.254Z,20.38
2023-04-20T01:47:00.038Z,20.37
2023-04-20T01:49:27.134Z,20.36
2023-04-20T01:51:54.305Z,20.36
2023-04-20T01:54:21.880Z,20.35
2023-04-20T01:56:48.805Z,20.34
2023-04-20T01:59:16.411Z,20.34
2023-04-20T02:01:43.523Z,20.33
2023-04-20T02:04:10.450Z,20.33
2023-04-20T02:06:40.187Z,20.32
2023-04-20T02:09:09.682Z,20.32
2023-04-20T02:11:36.669Z,20.31
2023-04-20T02:14:06.044Z,20.31
2023-04-20T02:16:33.129Z,20.30
2023-04-20T02:19:00.319Z,20.30
2023-04-20T02:21:28.161Z,20.30
2023-04-20T02:23:55.098Z,20.32
2023-04-20T02:26:22.267Z,20.34
2023-04-20T02:28:49.166Z,20.35
2023-04-20T02:31:16.101Z,20.36
2023-04-20T02:33:45.243Z,20.36
2023-04-20T02:36:12.214Z,20.37
2023-04-20T02:38:40.471Z,20.37
2023-04-20T02:41:07.699Z,20.38
2023-04-20T02:43:36.389Z,20.37
2023-04-20T02:46:04.063Z,20.37
2023-04-20T02:48:31.125Z,20.37
2023-04-20T02:50:59.006Z,20.36
2023-04-20T02:53:29.017Z,20.36
2023-04-20T02:56:11.640Z,20.35
2023-04-20T02:58:48.878Z,20.35
2023-04-20T03:01:48.683Z,20.33
2023-04-20T03:04:19.521Z,20.33
2023-04-20T03:06:55.060Z,20.32
2023-04-20T03:09:26.381Z,20.31
2023-04-20T03:11:59.110Z,20.30
2023-04-20T03:14:51.925Z,20.29
2023-04-20T03:17:21.782Z,20.28
2023-04-20T03:19:48.970Z,20.28
2023-04-20T03:22:16.160Z,20.27
2023-04-20T03:24:43.441Z,20.27
2023-04-20T03:27:19.997Z,20.26
2023-04-20T03:29:58.488Z,20.29
2023-04-20T03:32:25.643Z,20.30
2023-04-20T03:34:52.745Z,20.31
2023-04-20T03:37:20.539Z,20.32
2023-04-20T03:39:47.553Z,20.32
2023-04-20T03:42:14.450Z,20.34
2023-04-20T03:44:41.760Z,20.33
2023-04-20T03:47:10.345Z,20.34
2023-04-20T03:49:37.473Z,20.34
2023-04-20T03:52:05.180Z,20.34
2023-04-20T03:54:32.300Z,20.33
2023-04-20T03:57:00.700Z,20.33
2023-04-20T03:59:28.219Z,20.32
2023-04-20T04:01:55.226Z,20.32
2023-04-20T04:04:22.878Z,20.31
2023-04-20T04:06:50.544Z,20.31
2023-04-20T04:09:17.741Z,20.30
2023-04-20T04:11:45.876Z,20.29
2023-04-20T04:14:12.870Z,20.28
2023-04-20T04:16:40.084Z,20.27
2023-04-20T04:19:06.968Z,20.26
2023-04-20T04:21:34.786Z,20.25
2023-04-20T04:24:03.715Z,20.25
2023-04-20T04:26:42.751Z,20.27
2023-04-20T04:29:10.639Z,20.29
2023-04-20T04:31:37.807Z,20.31
2023-04-20T04:34:11.264Z,20.31
2023-04-20T04:36:44.940Z,20.32
2023-04-20T04:39:14.083Z,20.33
2023-04-20T04:41:44.065Z,20.33
2023-04-20T04:44:21.389Z,20.33
2023-04-20T04:46:48.785Z,20.33
2023-04-20T04:49:16.308Z,20.33
2023-04-20T04:51:43.639Z,20.32
2023-04-20T04:54:11.257Z,20.32
2023-04-20T04:56:38.256Z,20.31
2023-04-20T04:59:05.211Z,20.31
2023-04-20T05:01:32.146Z,20.29
2023-04-20T05:03:59.300Z,20.29
2023-04-20T05:06:26.487Z,20.28
2023-04-20T05:08:53.408Z,20.28
2023-04-20T05:11:20.340Z,20.27
2023-04-20T05:13:48.587Z,20.27
2023-04-20T05:16:15.652Z,20.26
2023-04-20T05:18:42.505Z,20.26
2023-04-20T05:21:09.385Z,20.26
2023-04-20T05:23:36.467Z,20.28
2023-04-20T05:26:03.430Z,20.31
2023-04-20T05:28:30.445Z,20.32
2023-04-20T05:30:57.358Z,20.32
2023-04-20T05:33:25.407Z,20.33
2023-04-20T05:35:57.413Z,20.34
2023-04-20T05:38:25.618Z,20.33
2023-04-20T05:40:52.835Z,20.32
2023-04-20T05:43:19.803Z,20.32
2023-04-20T05:45:46.979Z,20.31
2023-04-20T05:48:13.984Z,20.31
2023-04-20T05:50:40.810Z,20.30
2023-04-20T05:53:07.705Z,20.29
2023-04-20T05:55:34.634Z,20.28
2023-04-20T05:58:01.875Z,20.28
2023-04-20T06:00:29.212Z,20.27
2023-04-20T06:02:56.351Z,20.27
2023-04-20T06:05:23.510Z,20.26
2023-04-20T06:07:50.526Z,20.26
2023-04-20T06:10:17.456Z,20.25
2023-04-20T06:12:44.437Z,20.25
2023-04-20T06:15:11.593Z,20.28
2023-04-20T06:17:41.180Z,20.30
2023-04-20T06:20:10.593Z,20.31
2023-04-20T06:22:42.416Z,20.33
2023-04-20T06:25:10.763Z,20.34
2023-04-20T06:27:37.858Z,20.35
2023-04-20T06:30:06.351Z,20.36
2023-04-20T06:32:33.501Z,20.36
2023-04-20T06:35:00.620Z,20.36
2023-04-20T06:37:28.208Z,20.36
2023-04-20T06:39:55.193Z,20.36
2023-04-20T06:42:22.911Z,20.35
2023-04-20T06:44:50.462Z,20.36
2023-04-20T06:47:17.368Z,20.34
2023-04-20T06:49:44.348Z,20.34
2023-04-20T06:52:11.364Z,20.34
2023-04-20T06:54:38.198Z,20.32
2023-04-20T06:57:05.445Z,20.33
2023-04-20T06:59:32.364Z,20.35
2023-04-20T07:01:59.453Z,20.36
2023-04-20T07:04:27.048Z,20.37
2023-04-20T07:06:54.468Z,20.38
2023-04-20T07:09:23.222Z,20.39
2023-04-20T07:11:50.256Z,20.40
2023-04-20T07:14:17.265Z,20.40
2023-04-20T07:16:44.381Z,20.38
2023-04-20T07:19:11.846Z,20.38
2023-04-20T07:21:38.795Z,20.36
2023-04-20T07:24:06.188Z,20.37
2023-04-20T07:26:33.019Z,20.36
2023-04-20T07:28:59.887Z,20.35
2023-04-20T07:31:26.814Z,20.35
2023-04-20T07:33:53.926Z,20.34
2023-04-20T07:36:23.606Z,20.34
2023-04-20T07:38:50.531Z,20.32
2023-04-20T07:41:17.570Z,20.31
2023-04-20T07:43:45.089Z,20.30
2023-04-20T07:46:20.586Z,20.30
2023-04-20T07:48:47.577Z,20.32
2023-04-20T07:51:14.575Z,20.33
2023-04-20T07:53:42.582Z,20.34
2023-04-20T07:56:09.483Z,20.36
2023-04-20T07:58:38.634Z,20.36
2023-04-20T08:01:06.232Z,20.37
2023-04-20T08:03:33.938Z,20.36
2023-04-20T08:06:01.214Z,20.33
2023-04-20T08:08:28.250Z,20.32
2023-04-20T08:10:58.176Z,20.32
2023-04-20T08:13:25.125Z,20.34
2023-04-20T08:15:52.086Z,20.35
2023-04-20T08:18:20.736Z,20.36
2023-04-20T08:20:48.361Z,20.38
2023-04-20T08:23:15.271Z,20.39
2023-04-20T08:25:42.196Z,20.41
2023-04-20T08:28:15.333Z,20.41
2023-04-20T08:30:47.082Z,20.43
2023-04-20T08:33:13.988Z,20.43
2023-04-20T08:35:41.221Z,20.43
2023-04-20T08:38:08.154Z,20.44
2023-04-20T08:40:37.262Z,20.44
2023-04-20T08:43:04.239Z,20.45
2023-04-20T08:45:31.354Z,20.47
2023-04-20T08:47:59.414Z,20.48
2023-04-20T08:50:26.699Z,20.49
2023-04-20T08:52:53.555Z,20.48
2023-04-20T08:55:20.605Z,20.49
2023-04-20T08:57:50.407Z,20.50
2023-04-20T09:00:17.745Z,20.51
2023-04-20T09:02:55.835Z,20.51
2023-04-20T09:05:30.930Z,20.52
2023-04-20T09:08:00.049Z,20.53
2023-04-20T09:10:38.517Z,20.53
2023-04-20T09:13:06.294Z,20.54
2023-04-20T09:15:33.317Z,20.55
2023-04-20T09:18:00.306Z,20.55
2023-04-20T09:20:32.421Z,20.56
2023-04-20T09:23:14.774Z,20.56
2023-04-20T09:25:43.645Z,20.57
2023-04-20T09:28:11.513Z,20.58
2023-04-20T09:30:49.439Z,20.58
2023-04-20T09:33:16.369Z,20.59
2023-04-20T09:35:44.873Z,20.60
2023-04-20T09:38:16.045Z,20.60
2023-04-20T09:40:42.989Z,20.62
2023-04-20T09:43:19.869Z,20.62
2023-04-20T09:45:46.945Z,20.62
2023-04-20T09:48:19.434Z,20.62
2023-04-20T09:50:50.107Z,20.62
2023-04-20T09:53:19.778Z,20.62
2023-04-20T09:55:50.596Z,20.62
2023-04-20T09:58:21.511Z,20.63
2023-04-20T10:00:49.342Z,20.63
2023-04-20T10:03:20.502Z,20.64
2023-04-20T10:05:48.113Z,20.65
2023-04-20T10:08:16.216Z,20.65
2023-04-20T10:10:45.308Z,20.65
2023-04-20T10:13:12.525Z,20.65
2023-04-20T10:15:40.969Z,20.65
2023-04-20T10:18:23.829Z,20.65
2023-04-20T10:20:52.709Z,20.65
2023-04-20T10:23:20.201Z,20.65
2023-04-20T10:26:01.965Z,20.65
2023-04-20T10:28:40.019Z,20.65
2023-04-20T10:31:08.831Z,20.65
2023-04-20T10:33:35.837Z,20.66
2023-04-20T10:36:02.892Z,20.66
2023-04-20T10:38:34.882Z,20.65
2023-04-20T10:41:11.628Z,20.66
2023-04-20T10:43:44.986Z,20.66
2023-04-20T10:46:15.690Z,20.66
2023-04-20T10:49:02.213Z,20.67
2023-04-20T10:51:29.463Z,20.68
2023-04-20T10:54:07.957Z,20.68
2023-04-20T10:56:39.097Z,20.68
2023-04-20T10:59:07.972Z,20.69
2023-04-20T11:01:35.058Z,20.70
2023-04-20T11:04:02.113Z,20.71
2023-04-20T11:06:29.246Z,20.72
2023-04-20T11:08:56.423Z,20.73
2023-04-20T11:11:25.672Z,20.74
2023-04-20T11:13:52.682Z,20.73
2023-04-20T11:16:19.903Z,20.74
2023-04-20T11:18:52.078Z,20.74
2023-04-20T11:21:20.263Z,20.74
2023-04-20T11:23:47.503Z,20.74
2023-04-20T11:26:14.927Z,20.74
2023-04-20T11:28:56.191Z,20.75
2023-04-20T11:31:24.056Z,20.74
2023-04-20T11:33:51.184Z,20.74
2023-04-20T11:36:23.340Z,20.75
2023-04-20T11:38:51.281Z,20.75
2023-04-20T11:41:18.515Z,20.74
2023-04-20T11:43:46.321Z,20.75
2023-04-20T11:46:18.796Z,20.75
2023-04-20T11:48:47.535Z,20.76
2023-04-20T11:51:15.327Z,20.76
2023-04-20T11:53:42.889Z,20.76
2023-04-20T11:56:10.079Z,20.76
2023-04-20T11:58:37.257Z,20.76
2023-04-20T12:01:05.666Z,20.77
2023-04-20T12:03:32.919Z,20.78
2023-04-20T12:06:00.831Z,20.78
2023-04-20T12:08:27.828Z,20.78
2023-04-20T12:10:56.765Z,20.78
2023-04-20T12:13:26.054Z,20.79
2023-04-20T12:15:53.014Z,20.79
2023-04-20T12:18:20.660Z,20.79
2023-04-20T12:20:47.664Z,20.79
2023-04-20T12:23:14.556Z,20.79
2023-04-20T12:25:42.098Z,20.80
2023-04-20T12:28:09.072Z,20.80
2023-04-20T12:30:36.181Z,20.79
2023-04-20T12:33:04.766Z,20.79
2023-04-20T12:35:31.727Z,20.80
2023-04-20T12:37:58.693Z,20.81
2023-04-20T12:40:25.675Z,20.81
2023-04-20T12:42:52.530Z,20.82
2023-04-20T12:45:19.592Z,20.81
2023-04-20T12:47:48.763Z,20.82
2023-04-20T12:50:15.942Z,20.83
2023-04-20T12:52:42.880Z,20.83
2023-04-20T12:55:11.427Z,20.83
2023-04-20T12:57:38.480Z,20.84
2023-04-20T13:00:06.842Z,20.84
2023-04-20T13:02:33.997Z,20.84
2023-04-20T13:05:00.988Z,20.84
2023-04-20T13:07:28.129Z,20.85
2023-04-20T13:09:55.102Z,20.85
2023-04-20T13:12:21.989Z,20.85
2023-04-20T13:14:48.946Z,20.86
2023-04-20T13:17:15.824Z,20.86
2023-04-20T13:19:42.741Z,20.86
2023-04-20T13:22:09.681Z,20.87
2023-04-20T13:24:36.612Z,20.87
2023-04-20T13:27:04.637Z,20.87
2023-04-20T13:29:31.680Z,20.87
2023-04-20T13:31:58.893Z,20.87
2023-04-20T13:34:25.935Z,20.88
2023-04-20T13:36:52.797Z,20.89
2023-04-20T13:39:21.063Z,20.90
2023-04-20T13:41:51.850Z,20.90
2023-04-20T13:44:19.092Z,20.91
2023-04-20T13:46:47.735Z,20.91
2023-04-20T13:49:18.303Z,20.92
2023-04-20T13:51:46.638Z,20.92
2023-04-20T13:54:31.602Z,20.92
2023-04-20T13:57:01.543Z,20.93
2023-04-20T13:59:31.950Z,20.93
2023-04-20T14:02:01.593Z,20.93
2023-04-20T14:04:32.205Z,20.92
2023-04-20T14:07:02.265Z,20.93
2023-04-20T14:09:32.098Z,20.93
2023-04-20T14:12:02.559Z,20.93
2023-04-20T14:14:39.089Z,20.94
2023-04-20T14:17:08.123Z,20.94
2023-04-20T14:19:41.476Z,20.93
2023-04-20T14:22:10.002Z,20.94
2023-04-20T14:24:36.937Z,20.94
2023-04-20T14:27:03.878Z,20.94
2023-04-20T14:29:30.878Z,20.95
2023-04-20T14:31:57.982Z,20.94
2023-04-20T14:34:25.040Z,20.95
2023-04-20T14:36:51.940Z,20.95
2023-04-20T14:39:21.777Z,20.96
2023-04-20T14:41:48.654Z,20.95
2023-04-20T14:44:15.820Z,20.95
2023-04-20T14:46:43.004Z,20.95
2023-04-20T14:49:10.725Z,20.95
2023-04-20T14:51:37.637Z,20.95
2023-04-20T14:54:04.545Z,20.95
2023-04-20T14:56:31.618Z,20.95
2023-04-20T14:58:59.749Z,20.96
2023-04-20T15:01:27.959Z,20.95
2023-04-20T15:03:55.175Z,20.95
2023-04-20T15:06:22.455Z,20.95
2023-04-20T15:08:49.460Z,20.95
2023-04-20T15:11:16.697Z,20.95
2023-04-20T15:13:44.939Z,20.95
2023-04-20T15:16:12.231Z,20.95
2023-04-20T15:18:39.134Z,20.93
2023-04-20T15:21:09.048Z,20.91
2023-04-20T15:23:36.465Z,20.88
2023-04-20T15:26:03.395Z,20.87
2023-04-20T15:28:30.455Z,20.85
2023-04-20T15:30:57.351Z,20.83
2023-04-20T15:33:24.394Z,20.82
2023-04-20T15:35:52.874Z,20.80
2023-04-20T15:38:21.668Z,20.79
2023-04-20T15:40:48.812Z,20.77
2023-04-20T15:43:15.861Z,20.77
2023-04-20T15:45:44.687Z,20.76
2023-04-20T15:48:13.661Z,20.76
2023-04-20T15:50:41.038Z,20.76
2023-04-20T15:53:07.980Z,20.75
2023-04-20T15:55:38.750Z,20.76
2023-04-20T15:58:05.660Z,20.78
2023-04-20T16:00:33.231Z,20.79
2023-04-20T16:03:01.908Z,20.81
2023-04-20T16:05:29.107Z,20.82
2023-04-20T16:07:56.089Z,20.84
2023-04-20T16:10:23.749Z,20.85
2023-04-20T16:12:50.706Z,20.86
2023-04-20T16:15:18.154Z,20.87
2023-04-20T16:17:48.547Z,20.88
2023-04-20T16:20:15.699Z,20.88
2023-04-20T16:22:42.750Z,20.88
2023-04-20T16:25:12.479Z,20.87
2023-04-20T16:27:41.761Z,20.87
2023-04-20T16:30:09.874Z,20.85
2023-04-20T16:32:36.891Z,20.85
2023-04-20T16:35:06.355Z,20.84
2023-04-20T16:37:34.924Z,20.84
2023-04-20T16:40:02.650Z,20.86
2023-04-20T16:42:29.558Z,20.86
2023-04-20T16:44:56.443Z,20.88
2023-04-20T16:47:23.381Z,20.87
2023-04-20T16:49:50.287Z,20.88
2023-04-20T16:52:17.456Z,20.89
2023-04-20T16:54:44.370Z,20.90
2023-04-20T16:57:11.316Z,20.90
2023-04-20T16:59:38.411Z,20.91
2023-04-20T17:02:05.693Z,20.92
2023-04-20T17:04:32.861Z,20.93
2023-04-20T17:06:59.830Z,20.93
2023-04-20T17:09:27.297Z,20.93
2023-04-20T17:11:54.164Z,20.94
2023-04-20T17:14:21.302Z,20.95
2023-04-20T17:16:48.277Z,20.95
2023-04-20T17:19:15.230Z,20.95
2023-04-20T17:21:44.206Z,20.96
2023-04-20T17:24:11.298Z,20.96
2023-04-20T17:26:38.177Z,20.96
2023-04-20T17:29:05.034Z,20.97
2023-04-20T17:31:33.547Z,20.97
2023-04-20T17:34:00.844Z,20.97
2023-04-20T17:36:28.281Z,20.97
2023-04-20T17:38:55.288Z,20.97
2023-04-20T17:41:22.431Z,20.98
2023-04-20T17:43:51.906Z,20.97
2023-04-20T17:46:18.883Z,20.96
2023-04-20T17:48:46.031Z,20.96
2023-04-20T17:51:14.370Z,20.93
2023-04-20T17:53:41.419Z,20.91
2023-04-20T17:56:08.374Z,20.90
2023-04-20T17:58:35.550Z,20.88
2023-04-20T18:01:03.451Z,20.85
2023-04-20T18:03:30.798Z,20.84
2023-04-20T18:05:57.953Z,20.82
2023-04-20T18:08:25.033Z,20.82
2023-04-20T18:10:52.079Z,20.81
2023-04-20T18:13:19.240Z,20.80
2023-04-20T18:15:46.433Z,20.79
2023-04-20T18:18:13.634Z,20.78
2023-04-20T18:20:40.770Z,20.77
2023-04-20T18:23:08.757Z,20.77
2023-04-20T18:25:35.834Z,20.75
2023-04-20T18:28:02.850Z,20.74
2023-04-20T18:30:29.787Z,20.73
2023-04-20T18:32:56.767Z,20.72
2023-04-20T18:35:23.985Z,20.72
2023-04-20T18:37:52.167Z,20.71
2023-04-20T18:40:19.616Z,20.71
2023-04-20T18:42:46.684Z,20.72
2023-04-20T18:45:13.871Z,20.72
2023-04-20T18:47:41.117Z,20.73
2023-04-20T18:50:08.453Z,20.74
2023-04-20T18:52:35.576Z,20.75
2023-04-20T18:55:02.671Z,20.76
2023-04-20T18:57:30.186Z,20.77
2023-04-20T18:59:57.123Z,20.76
2023-04-20T19:02:24.370Z,20.76
2023-04-20T19:04:51.734Z,20.76
2023-04-20T19:07:19.113Z,20.76
2023-04-20T19:09:46.132Z,20.77
2023-04-20T19:12:13.179Z,20.78
2023-04-20T19:14:40.014Z,20.79
2023-04-20T19:17:07.555Z,20.78
2023-04-20T19:19:34.905Z,20.78
2023-04-20T19:22:03.700Z,20.77
2023-04-20T19:24:32.326Z,20.76
2023-04-20T19:26:59.333Z,20.76
2023-04-20T19:29:26.299Z,20.77
2023-04-20T19:31:53.286Z,20.78
2023-04-20T19:34:21.833Z,20.79
2023-04-20T19:36:49.106Z,20.79
2023-04-20T19:39:16.026Z,20.79
2023-04-20T19:41:43.257Z,20.78
2023-04-20T19:44:12.221Z,20.77
2023-04-20T19:46:40.854Z,20.76
2023-04-20T19:49:07.892Z,20.77
2023-04-20T19:51:34.926Z,20.79
2023-04-20T19:54:03.622Z,20.79
2023-04-20T19:56:31.148Z,20.80
2023-04-20T19:58:58.091Z,20.80
2023-04-20T20:01:25.032Z,20.79
2023-04-20T20:03:52.932Z,20.79
2023-04-20T20:06:21.849Z,20.77
2023-04-20T20:08:49.098Z,20.77
2023-04-20T20:11:16.150Z,20.77
2023-04-20T20:13:44.476Z,20.77
2023-04-20T20:16:12.481Z,20.78
2023-04-20T20:18:39.640Z,20.78
2023-04-20T20:21:06.905Z,20.78
2023-04-20T20:23:34.035Z,20.77
2023-04-20T20:26:01.187Z,20.75
2023-04-20T20:28:28.334Z,20.74
2023-04-20T20:30:55.513Z,20.73
2023-04-20T20:33:22.655Z,20.74
2023-04-20T20:35:49.531Z,20.73
2023-04-20T20:38:18.024Z,20.72
2023-04-20T20:40:45.210Z,20.72
2023-04-20T20:43:13.177Z,20.72
2023-04-20T20:45:40.335Z,20.72
2023-04-20T20:48:07.348Z,20.72
2023-04-20T20:50:34.380Z,20.74
2023-04-20T20:53:01.220Z,20.75
2023-04-20T20:55:28.159Z,20.77
2023-04-20T20:57:55.024Z,20.79
2023-04-20T21:00:22.010Z,20.81
2023-04-20T21:02:49.015Z,20.82
2023-04-20T21:05:16.413Z,20.82
2023-04-20T21:07:43.757Z,20.81
2023-04-20T21:10:12.028Z,20.79
2023-04-20T21:12:39.095Z,20.77
2023-04-20T21:15:06.852Z,20.75
2023-04-20T21:17:34.156Z,20.74
2023-04-20T21:20:01.261Z,20.72
2023-04-20T21:22:30.052Z,20.71
2023-04-20T21:24:57.082Z,20.68
2023-04-20T21:27:24.426Z,20.66
2023-04-20T21:29:51.381Z,20.65
2023-04-20T21:32:18.749Z,20.63
2023-04-20T21:34:46.709Z,20.60
2023-04-20T21:37:14.077Z,20.59
2023-04-20T21:39:41.211Z,20.58
2023-04-20T21:42:08.082Z,20.56
2023-04-20T21:44:35.005Z,20.55
2023-04-20T21:47:02.820Z,20.55
2023-04-20T21:49:31.769Z,20.55
2023-04-20T21:51:59.207Z,20.55
2023-04-20T21:54:26.154Z,20.53
2023-04-20T21:56:53.108Z,20.52
2023-04-20T21:59:20.291Z,20.50
2023-04-20T22:01:47.759Z,20.50
2023-04-20T22:04:16.930Z,20.50
2023-04-20T22:06:44.102Z,20.49
2023-04-20T22:09:11.204Z,20.50
2023-04-20T22:11:38.157Z,20.50
2023-04-20T22:14:05.092Z,20.50
2023-04-20T22:16:34.137Z,20.49
2023-04-20T22:19:01.644Z,20.48
2023-04-20T22:21:28.695Z,20.46
2023-04-20T22:23:55.956Z,20.45
2023-04-20T22:26:22.884Z,20.43
2023-04-20T22:28:50.654Z,20.42
2023-04-20T22:31:17.533Z,20.40
2023-04-20T22:33:44.657Z,20.39
2023-04-20T22:36:11.694Z,20.38
2023-04-20T22:38:38.782Z,20.40
2023-04-20T22:41:05.903Z,20.41
2023-04-20T22:43:32.831Z,20.41
2023-04-20T22:45:59.877Z,20.42
2023-04-20T22:48:26.933Z,20.41
2023-04-20T22:50:53.877Z,20.42
2023-04-20T22:53:20.874Z,20.41
2023-04-20T22:55:47.867Z,20.40
2023-04-20T22:58:14.920Z,20.39
2023-04-20T23:00:42.225Z,20.38
2023-04-20T23:03:09.664Z,20.37
2023-04-20T23:05:36.858Z,20.36
2023-04-20T23:08:03.823Z,20.35
2023-04-20T23:10:30.773Z,20.34
2023-04-20T23:12:57.817Z,20.34
2023-04-20T23:15:24.902Z,20.37
2023-04-20T23:17:53.073Z,20.37
2023-04-20T23:20:20.286Z,20.37
2023-04-20T23:22:47.336Z,20.37
2023-04-20T23:25:14.278Z,20.38
2023-04-20T23:27:44.936Z,20.38
2023-04-20T23:30:12.681Z,20.38
2023-04-20T23:32:40.185Z,20.38
2023-04-20T23:35:08.660Z,20.37
2023-04-20T23:37:35.767Z,20.37
2023-04-20T23:40:07.016Z,20.37
2023-04-20T23:42:36.279Z,20.37
2023-04-20T23:45:07.059Z,20.37
2023-04-20T23:47:34.113Z,20.41
2023-04-20T23:50:01.154Z,20.42
2023-04-20T23:52:28.080Z,20.43
2023-04-20T23:54:54.972Z,20.44
2023-04-20T23:57:21.969Z,20.44
2023-04-20T23:59:49.128Z,20.43
